Airports Italy Catania-Fontanarossa Airport

Catania-Fontanarossa Airport (LICC / CTA)

Facts about Catania-Fontanarossa Airport

Name Catania-Fontanarossa Airport
City Catania
Country Italy
ICAO code LICC
IATA code CTA
Elevation 11.8872 meters (39 feet)

Weather

METAR

Metar data retrieved Friday, 19 July 2024 at 23:55 UTC (26 minutes ago)

LICC 192320Z 27007KT CAVOK 26/23 Q1011

Live traffic

Navigraph Charts (account required)